sensor_id;sensor_type;location;lat;lon;timestamp;temperature;humidity
2723;DHT22;1369;53.216;10.396;2023-04-16T00:01:36;9.00;99.90
2723;DHT22;1369;53.216;10.396;2023-04-16T00:04:01;9.00;99.90
2723;DHT22;1369;53.216;10.396;2023-04-16T00:06:27;9.10;99.90
2723;DHT22;1369;53.216;10.396;2023-04-16T00:08:53;9.10;99.90
2723;DHT22;1369;53.216;10.396;2023-04-16T00:11:18;9.10;99.90
2723;DHT22;1369;53.216;10.396;2023-04-16T00:13:44;9.10;99.90
2723;DHT22;1369;53.216;10.396;2023-04-16T00:16:09;9.00;99.90
2723;DHT22;1369;53.216;10.396;2023-04-16T00:18:35;9.10;99.90
2723;DHT22;1369;53.216;10.396;2023-04-16T00:21:00;9.00;99.90
2723;DHT22;1369;53.216;10.396;2023-04-16T00:23:26;8.90;99.90
2723;DHT22;1369;53.216;10.396;2023-04-16T00:25:51;8.80;99.90
2723;DHT22;1369;53.216;10.396;2023-04-16T00:28:18;8.90;99.90
2723;DHT22;1369;53.216;10.396;2023-04-16T00:30:43;8.90;99.90
2723;DHT22;1369;53.216;10.396;2023-04-16T00:33:09;8.90;99.90
2723;DHT22;1369;53.216;10.396;2023-04-16T00:35:34;8.90;99.90
2723;DHT22;1369;53.216;10.396;2023-04-16T00:38:00;8.80;99.90
2723;DHT22;1369;53.216;10.396;2023-04-16T00:40:29;8.80;99.90
2723;DHT22;1369;53.216;10.396;2023-04-16T00:42:54;8.90;99.90
2723;DHT22;1369;53.216;10.396;2023-04-16T00:45:20;8.90;99.90
2723;DHT22;1369;53.216;10.396;2023-04-16T00:47:45;9.00;99.90
2723;DHT22;1369;53.216;10.396;2023-04-16T00:50:11;9.00;99.90
2723;DHT22;1369;53.216;10.396;2023-04-16T00:52:37;9.00;99.90
2723;DHT22;1369;53.216;10.396;2023-04-16T00:55:04;9.00;99.90
2723;DHT22;1369;53.216;10.396;2023-04-16T00:57:30;9.00;99.90
2723;DHT22;1369;53.216;10.396;2023-04-16T00:59:56;8.90;99.90
2723;DHT22;1369;53.216;10.396;2023-04-16T01:02:22;9.00;99.90
2723;DHT22;1369;53.216;10.396;2023-04-16T01:04:48;9.00;99.90
2723;DHT22;1369;53.216;10.396;2023-04-16T01:07:14;9.00;99.90
2723;DHT22;1369;53.216;10.396;2023-04-16T01:09:40;9.10;99.90
2723;DHT22;1369;53.216;10.396;2023-04-16T01:12:05;9.10;99.90
2723;DHT22;1369;53.216;10.396;2023-04-16T01:14:31;9.20;99.90
2723;DHT22;1369;53.216;10.396;2023-04-16T01:17:03;9.10;99.90
2723;DHT22;1369;53.216;10.396;2023-04-16T01:19:30;9.10;99.90
2723;DHT22;1369;53.216;10.396;2023-04-16T01:21:57;9.10;99.90
2723;DHT22;1369;53.216;10.396;2023-04-16T01:24:22;9.10;99.90
2723;DHT22;1369;53.216;10.396;2023-04-16T01:26:48;9.10;99.90
2723;DHT22;1369;53.216;10.396;2023-04-16T01:29:13;9.10;99.90
2723;DHT22;1369;53.216;10.396;2023-04-16T01:31:39;9.20;99.90
2723;DHT22;1369;53.216;10.396;2023-04-16T01:34:04;9.10;99.90
2723;DHT22;1369;53.216;10.396;2023-04-16T01:36:30;9.10;99.90
2723;DHT22;1369;53.216;10.396;2023-04-16T01:38:55;9.10;99.90
2723;DHT22;1369;53.216;10.396;2023-04-16T01:41:21;9.10;99.90
2723;DHT22;1369;53.216;10.396;2023-04-16T01:43:46;9.10;99.90
2723;DHT22;1369;53.216;10.396;2023-04-16T01:46:22;9.20;99.90
2723;DHT22;1369;53.216;10.396;2023-04-16T01:48:51;9.20;99.90
2723;DHT22;1369;53.216;10.396;2023-04-16T01:51:19;9.20;99.90
2723;DHT22;1369;53.216;10.396;2023-04-16T01:53:44;9.20;99.90
2723;DHT22;1369;53.216;10.396;2023-04-16T01:56:10;9.20;99.90
2723;DHT22;1369;53.216;10.396;2023-04-16T01:58:35;9.20;99.90
2723;DHT22;1369;53.216;10.396;2023-04-16T02:01:01;9.20;99.90
2723;DHT22;1369;53.216;10.396;2023-04-16T02:03:27;9.20;99.90
2723;DHT22;1369;53.216;10.396;2023-04-16T02:05:52;9.30;99.90
2723;DHT22;1369;53.216;10.396;2023-04-16T02:08:18;9.40;99.90
2723;DHT22;1369;53.216;10.396;2023-04-16T02:10:48;9.40;99.90
2723;DHT22;1369;53.216;10.396;2023-04-16T02:13:14;9.30;99.90
2723;DHT22;1369;53.216;10.396;2023-04-16T02:15:47;9.30;99.90
2723;DHT22;1369;53.216;10.396;2023-04-16T02:18:12;9.20;99.90
2723;DHT22;1369;53.216;10.396;2023-04-16T02:20:42;9.20;99.90
2723;DHT22;1369;53.216;10.396;2023-04-16T02:23:08;9.10;99.90
2723;DHT22;1369;53.216;10.396;2023-04-16T02:25:41;9.20;99.90
2723;DHT22;1369;53.216;10.396;2023-04-16T02:28:08;9.10;99.90
2723;DHT22;1369;53.216;10.396;2023-04-16T02:30:37;9.20;99.90
2723;DHT22;1369;53.216;10.396;2023-04-16T02:33:03;9.10;99.90
2723;DHT22;1369;53.216;10.396;2023-04-16T02:35:34;9.20;99.90
2723;DHT22;1369;53.216;10.396;2023-04-16T02:38:01;9.20;99.90
2723;DHT22;1369;53.216;10.396;2023-04-16T02:40:28;9.20;99.90
2723;DHT22;1369;53.216;10.396;2023-04-16T02:42:54;9.20;99.90
2723;DHT22;1369;53.216;10.396;2023-04-16T02:45:20;9.20;99.90
2723;DHT22;1369;53.216;10.396;2023-04-16T02:47:46;9.20;99.90
2723;DHT22;1369;53.216;10.396;2023-04-16T02:50:12;9.30;99.90
2723;DHT22;1369;53.216;10.396;2023-04-16T02:52:37;9.30;99.90
2723;DHT22;1369;53.216;10.396;2023-04-16T02:55:03;9.30;99.90
2723;DHT22;1369;53.216;10.396;2023-04-16T02:57:29;9.20;99.90
2723;DHT22;1369;53.216;10.396;2023-04-16T02:59:54;9.20;99.90
2723;DHT22;1369;53.216;10.396;2023-04-16T03:02:20;9.20;99.90
2723;DHT22;1369;53.216;10.396;2023-04-16T03:04:46;9.20;99.90
2723;DHT22;1369;53.216;10.396;2023-04-16T03:07:11;9.20;99.90
2723;DHT22;1369;53.216;10.396;2023-04-16T03:09:38;9.20;99.90
2723;DHT22;1369;53.216;10.396;2023-04-16T03:12:03;9.10;99.90
2723;DHT22;1369;53.216;10.396;2023-04-16T03:14:29;9.10;99.90
2723;DHT22;1369;53.216;10.396;2023-04-16T03:16:56;9.10;99.90
2723;DHT22;1369;53.216;10.396;2023-04-16T03:19:21;9.10;99.90
2723;DHT22;1369;53.216;10.396;2023-04-16T03:21:47;9.10;99.90
2723;DHT22;1369;53.216;10.396;2023-04-16T03:24:13;9.10;99.90
2723;DHT22;1369;53.216;10.396;2023-04-16T03:26:38;9.00;99.90
2723;DHT22;1369;53.216;10.396;2023-04-16T03:29:04;9.00;99.90
2723;DHT22;1369;53.216;10.396;2023-04-16T03:31:30;9.00;99.90
2723;DHT22;1369;53.216;10.396;2023-04-16T03:33:55;9.00;99.90
2723;DHT22;1369;53.216;10.396;2023-04-16T03:36:21;9.00;99.90
2723;DHT22;1369;53.216;10.396;2023-04-16T03:38:51;9.00;99.90
2723;DHT22;1369;53.216;10.396;2023-04-16T03:41:17;8.90;99.90
2723;DHT22;1369;53.216;10.396;2023-04-16T03:43:42;8.90;99.90
2723;DHT22;1369;53.216;10.396;2023-04-16T03:46:08;8.90;99.90
2723;DHT22;1369;53.216;10.396;2023-04-16T03:48:33;8.90;99.90
2723;DHT22;1369;53.216;10.396;2023-04-16T03:50:59;8.90;99.90
2723;DHT22;1369;53.216;10.396;2023-04-16T03:53:24;8.90;99.90
2723;DHT22;1369;53.216;10.396;2023-04-16T03:55:51;9.00;99.90
2723;DHT22;1369;53.216;10.396;2023-04-16T03:58:17;9.00;99.90
2723;DHT22;1369;53.216;10.396;2023-04-16T04:00:42;9.00;99.90
2723;DHT22;1369;53.216;10.396;2023-04-16T04:03:12;9.00;99.90
2723;DHT22;1369;53.216;10.396;2023-04-16T04:05:41;9.00;99.90
2723;DHT22;1369;53.216;10.396;2023-04-16T04:08:07;9.00;99.90
2723;DHT22;1369;53.216;10.396;2023-04-16T04:10:33;9.00;99.90
2723;DHT22;1369;53.216;10.396;2023-04-16T04:13:04;9.10;99.90
2723;DHT22;1369;53.216;10.396;2023-04-16T04:15:30;9.10;99.90
2723;DHT22;1369;53.216;10.396;2023-04-16T04:17:55;9.10;99.90
2723;DHT22;1369;53.216;10.396;2023-04-16T04:20:22;9.10;99.90
2723;DHT22;1369;53.216;10.396;2023-04-16T04:22:47;9.10;99.90
2723;DHT22;1369;53.216;10.396;2023-04-16T04:25:13;9.00;99.90
2723;DHT22;1369;53.216;10.396;2023-04-16T04:27:38;9.10;99.90
2723;DHT22;1369;53.216;10.396;2023-04-16T04:30:04;9.00;99.90
2723;DHT22;1369;53.216;10.396;2023-04-16T04:32:30;9.00;99.90
2723;DHT22;1369;53.216;10.396;2023-04-16T04:34:58;9.00;99.90
2723;DHT22;1369;53.216;10.396;2023-04-16T04:37:24;9.00;99.90
2723;DHT22;1369;53.216;10.396;2023-04-16T04:39:49;9.00;99.90
2723;DHT22;1369;53.216;10.396;2023-04-16T04:42:16;9.00;99.90
2723;DHT22;1369;53.216;10.396;2023-04-16T04:44:43;9.00;99.90
2723;DHT22;1369;53.216;10.396;2023-04-16T04:47:08;9.00;99.90
2723;DHT22;1369;53.216;10.396;2023-04-16T04:49:34;9.00;99.90
2723;DHT22;1369;53.216;10.396;2023-04-16T04:51:59;9.00;99.90
2723;DHT22;1369;53.216;10.396;2023-04-16T04:54:26;9.10;99.90
2723;DHT22;1369;53.216;10.396;2023-04-16T04:56:52;9.10;99.90
2723;DHT22;1369;53.216;10.396;2023-04-16T04:59:19;9.10;99.90
2723;DHT22;1369;53.216;10.396;2023-04-16T05:01:45;9.00;99.90
2723;DHT22;1369;53.216;10.396;2023-04-16T05:04:10;9.10;99.90
2723;DHT22;1369;53.216;10.396;2023-04-16T05:06:36;9.10;99.90
2723;DHT22;1369;53.216;10.396;2023-04-16T05:09:01;9.00;99.90
2723;DHT22;1369;53.216;10.396;2023-04-16T05:11:28;9.10;99.90
2723;DHT22;1369;53.216;10.396;2023-04-16T05:13:53;9.10;99.90
2723;DHT22;1369;53.216;10.396;2023-04-16T05:16:19;9.00;99.90
2723;DHT22;1369;53.216;10.396;2023-04-16T05:18:44;9.00;99.90
2723;DHT22;1369;53.216;10.396;2023-04-16T05:21:10;8.90;99.90
2723;DHT22;1369;53.216;10.396;2023-04-16T05:23:36;9.00;99.90
2723;DHT22;1369;53.216;10.396;2023-04-16T05:26:01;9.00;99.90
2723;DHT22;1369;53.216;10.396;2023-04-16T05:28:27;9.10;99.90
2723;DHT22;1369;53.216;10.396;2023-04-16T05:30:52;9.00;99.90
2723;DHT22;1369;53.216;10.396;2023-04-16T05:33:18;9.00;99.90
2723;DHT22;1369;53.216;10.396;2023-04-16T05:35:43;9.10;99.90
2723;DHT22;1369;53.216;10.396;2023-04-16T05:38:09;9.10;99.90
2723;DHT22;1369;53.216;10.396;2023-04-16T05:40:34;9.20;99.90
2723;DHT22;1369;53.216;10.396;2023-04-16T05:43:00;9.20;99.90
2723;DHT22;1369;53.216;10.396;2023-04-16T05:45:26;9.20;99.90
2723;DHT22;1369;53.216;10.396;2023-04-16T05:47:51;9.20;99.90
2723;DHT22;1369;53.216;10.396;2023-04-16T05:50:16;9.30;99.90
2723;DHT22;1369;53.216;10.396;2023-04-16T05:52:42;9.30;99.90
2723;DHT22;1369;53.216;10.396;2023-04-16T05:55:08;9.20;99.90
2723;DHT22;1369;53.216;10.396;2023-04-16T05:57:34;9.20;99.90
2723;DHT22;1369;53.216;10.396;2023-04-16T05:59:59;9.20;99.90
2723;DHT22;1369;53.216;10.396;2023-04-16T06:02:25;9.30;99.90
2723;DHT22;1369;53.216;10.396;2023-04-16T06:04:50;9.30;99.90
2723;DHT22;1369;53.216;10.396;2023-04-16T06:07:16;9.40;99.90
2723;DHT22;1369;53.216;10.396;2023-04-16T06:09:41;9.50;99.90
2723;DHT22;1369;53.216;10.396;2023-04-16T06:12:07;9.60;99.90
2723;DHT22;1369;53.216;10.396;2023-04-16T06:14:32;9.60;99.90
2723;DHT22;1369;53.216;10.396;2023-04-16T06:16:58;9.70;99.90
2723;DHT22;1369;53.216;10.396;2023-04-16T06:19:23;9.60;99.90
2723;DHT22;1369;53.216;10.396;2023-04-16T06:21:49;9.70;99.90
2723;DHT22;1369;53.216;10.396;2023-04-16T06:24:15;9.60;99.90
2723;DHT22;1369;53.216;10.396;2023-04-16T06:26:42;9.60;99.90
2723;DHT22;1369;53.216;10.396;2023-04-16T06:29:08;9.60;99.90
2723;DHT22;1369;53.216;10.396;2023-04-16T06:31:33;9.70;99.90
2723;DHT22;1369;53.216;10.396;2023-04-16T06:33:59;9.80;99.90
2723;DHT22;1369;53.216;10.396;2023-04-16T06:36:25;9.80;99.90
2723;DHT22;1369;53.216;10.396;2023-04-16T06:38:51;9.90;99.90
2723;DHT22;1369;53.216;10.396;2023-04-16T06:41:17;9.70;99.90
2723;DHT22;1369;53.216;10.396;2023-04-16T06:43:43;9.70;99.90
2723;DHT22;1369;53.216;10.396;2023-04-16T06:46:08;9.70;99.90
2723;DHT22;1369;53.216;10.396;2023-04-16T06:48:34;9.70;99.90
2723;DHT22;1369;53.216;10.396;2023-04-16T06:51:00;9.70;99.90
2723;DHT22;1369;53.216;10.396;2023-04-16T06:53:26;9.80;99.90
2723;DHT22;1369;53.216;10.396;2023-04-16T06:55:51;9.70;99.90
2723;DHT22;1369;53.216;10.396;2023-04-16T06:58:17;9.70;99.90
2723;DHT22;1369;53.216;10.396;2023-04-16T07:00:42;9.80;99.90
2723;DHT22;1369;53.216;10.396;2023-04-16T07:03:08;9.70;99.90
2723;DHT22;1369;53.216;10.396;2023-04-16T07:05:33;9.80;99.90
2723;DHT22;1369;53.216;10.396;2023-04-16T07:07:59;9.80;99.90
2723;DHT22;1369;53.216;10.396;2023-04-16T07:10:25;9.80;99.90
2723;DHT22;1369;53.216;10.396;2023-04-16T07:12:50;9.70;99.90
2723;DHT22;1369;53.216;10.396;2023-04-16T07:15:16;9.70;99.90
2723;DHT22;1369;53.216;10.396;2023-04-16T07:17:41;9.70;99.90
2723;DHT22;1369;53.216;10.396;2023-04-16T07:20:07;9.80;99.90
2723;DHT22;1369;53.216;10.396;2023-04-16T07:22:33;9.90;99.90
2723;DHT22;1369;53.216;10.396;2023-04-16T07:24:58;9.80;99.90
2723;DHT22;1369;53.216;10.396;2023-04-16T07:27:24;9.80;99.90
2723;DHT22;1369;53.216;10.396;2023-04-16T07:29:50;9.90;99.90
2723;DHT22;1369;53.216;10.396;2023-04-16T07:32:15;9.90;99.90
2723;DHT22;1369;53.216;10.396;2023-04-16T07:34:41;10.00;99.90
2723;DHT22;1369;53.216;10.396;2023-04-16T07:37:08;10.00;99.90
2723;DHT22;1369;53.216;10.396;2023-04-16T07:39:33;10.00;99.90
2723;DHT22;1369;53.216;10.396;2023-04-16T07:41:59;10.10;99.90
2723;DHT22;1369;53.216;10.396;2023-04-16T07:44:24;10.20;99.90
2723;DHT22;1369;53.216;10.396;2023-04-16T07:46:50;10.20;99.90
2723;DHT22;1369;53.216;10.396;2023-04-16T07:49:15;10.20;99.90
2723;DHT22;1369;53.216;10.396;2023-04-16T07:51:41;10.30;99.90
2723;DHT22;1369;53.216;10.396;2023-04-16T07:54:07;10.30;99.90
2723;DHT22;1369;53.216;10.396;2023-04-16T07:56:32;10.50;99.90
2723;DHT22;1369;53.216;10.396;2023-04-16T07:58:58;10.50;99.90
2723;DHT22;1369;53.216;10.396;2023-04-16T08:01:23;10.70;99.90
2723;DHT22;1369;53.216;10.396;2023-04-16T08:03:49;10.80;99.90
2723;DHT22;1369;53.216;10.396;2023-04-16T08:06:16;10.70;99.90
2723;DHT22;1369;53.216;10.396;2023-04-16T08:08:41;10.70;99.90
2723;DHT22;1369;53.216;10.396;2023-04-16T08:11:07;10.80;99.90
2723;DHT22;1369;53.216;10.396;2023-04-16T08:13:33;10.90;99.90
2723;DHT22;1369;53.216;10.396;2023-04-16T08:15:58;10.80;99.90
2723;DHT22;1369;53.216;10.396;2023-04-16T08:18:24;10.90;99.90
2723;DHT22;1369;53.216;10.396;2023-04-16T08:20:49;11.00;99.90
2723;DHT22;1369;53.216;10.396;2023-04-16T08:23:15;11.10;99.90
2723;DHT22;1369;53.216;10.396;2023-04-16T08:25:40;11.20;99.90
2723;DHT22;1369;53.216;10.396;2023-04-16T08:28:06;11.40;99.90
2723;DHT22;1369;53.216;10.396;2023-04-16T08:30:31;11.30;99.90
2723;DHT22;1369;53.216;10.396;2023-04-16T08:32:57;11.30;99.90
2723;DHT22;1369;53.216;10.396;2023-04-16T08:35:23;11.40;99.90
2723;DHT22;1369;53.216;10.396;2023-04-16T08:37:48;11.30;99.90
2723;DHT22;1369;53.216;10.396;2023-04-16T08:40:14;11.30;99.90
2723;DHT22;1369;53.216;10.396;2023-04-16T08:42:48;11.30;99.90
2723;DHT22;1369;53.216;10.396;2023-04-16T08:45:17;11.30;99.90
2723;DHT22;1369;53.216;10.396;2023-04-16T08:47:48;11.20;99.90
2723;DHT22;1369;53.216;10.396;2023-04-16T08:50:15;11.30;99.90
2723;DHT22;1369;53.216;10.396;2023-04-16T08:52:50;11.30;99.90
2723;DHT22;1369;53.216;10.396;2023-04-16T08:55:18;11.20;99.90
2723;DHT22;1369;53.216;10.396;2023-04-16T08:57:57;11.30;99.90
2723;DHT22;1369;53.216;10.396;2023-04-16T09:00:23;11.30;99.90
2723;DHT22;1369;53.216;10.396;2023-04-16T09:02:49;11.20;99.90
2723;DHT22;1369;53.216;10.396;2023-04-16T09:05:16;11.30;99.90
2723;DHT22;1369;53.216;10.396;2023-04-16T09:07:44;11.40;99.90
2723;DHT22;1369;53.216;10.396;2023-04-16T09:10:11;11.40;99.90
2723;DHT22;1369;53.216;10.396;2023-04-16T09:12:37;11.40;99.90
2723;DHT22;1369;53.216;10.396;2023-04-16T09:15:05;11.50;99.90
2723;DHT22;1369;53.216;10.396;2023-04-16T09:17:30;11.40;99.90
2723;DHT22;1369;53.216;10.396;2023-04-16T09:19:56;11.50;99.90
2723;DHT22;1369;53.216;10.396;2023-04-16T09:22:21;11.60;99.90
2723;DHT22;1369;53.216;10.396;2023-04-16T09:24:47;11.70;99.90
2723;DHT22;1369;53.216;10.396;2023-04-16T09:27:12;11.80;99.90
2723;DHT22;1369;53.216;10.396;2023-04-16T09:29:39;11.80;99.90
2723;DHT22;1369;53.216;10.396;2023-04-16T09:32:10;12.00;99.90
2723;DHT22;1369;53.216;10.396;2023-04-16T09:34:58;12.10;99.90
2723;DHT22;1369;53.216;10.396;2023-04-16T09:37:25;12.20;99.90
2723;DHT22;1369;53.216;10.396;2023-04-16T09:39:54;12.00;99.90
2723;DHT22;1369;53.216;10.396;2023-04-16T09:42:27;12.00;99.90
2723;DHT22;1369;53.216;10.396;2023-04-16T09:44:53;11.80;99.90
2723;DHT22;1369;53.216;10.396;2023-04-16T09:47:19;11.90;99.90
2723;DHT22;1369;53.216;10.396;2023-04-16T09:49:45;12.00;99.90
2723;DHT22;1369;53.216;10.396;2023-04-16T09:52:15;12.20;99.90
2723;DHT22;1369;53.216;10.396;2023-04-16T09:54:52;12.30;99.90
2723;DHT22;1369;53.216;10.396;2023-04-16T09:57:22;12.40;99.90
2723;DHT22;1369;53.216;10.396;2023-04-16T09:59:52;12.60;99.90
2723;DHT22;1369;53.216;10.396;2023-04-16T10:02:17;12.90;99.90
2723;DHT22;1369;53.216;10.396;2023-04-16T10:04:48;13.20;99.90
2723;DHT22;1369;53.216;10.396;2023-04-16T10:07:14;13.30;99.90
2723;DHT22;1369;53.216;10.396;2023-04-16T10:09:40;13.30;99.90
2723;DHT22;1369;53.216;10.396;2023-04-16T10:12:07;13.20;99.90
2723;DHT22;1369;53.216;10.396;2023-04-16T10:14:33;12.90;99.90
2723;DHT22;1369;53.216;10.396;2023-04-16T10:16:59;12.70;99.90
2723;DHT22;1369;53.216;10.396;2023-04-16T10:19:28;12.50;99.90
2723;DHT22;1369;53.216;10.396;2023-04-16T10:21:57;12.60;99.90
2723;DHT22;1369;53.216;10.396;2023-04-16T10:24:23;12.60;99.90
2723;DHT22;1369;53.216;10.396;2023-04-16T10:26:51;12.70;99.90
2723;DHT22;1369;53.216;10.396;2023-04-16T10:29:18;12.70;99.90
2723;DHT22;1369;53.216;10.396;2023-04-16T10:31:46;12.50;99.90
2723;DHT22;1369;53.216;10.396;2023-04-16T10:34:12;12.40;99.90
2723;DHT22;1369;53.216;10.396;2023-04-16T10:36:38;12.20;99.90
2723;DHT22;1369;53.216;10.396;2023-04-16T10:39:11;12.20;99.90
2723;DHT22;1369;53.216;10.396;2023-04-16T10:41:38;12.40;99.90
2723;DHT22;1369;53.216;10.396;2023-04-16T10:44:08;12.70;99.90
2723;DHT22;1369;53.216;10.396;2023-04-16T10:46:39;12.50;99.90
2723;DHT22;1369;53.216;10.396;2023-04-16T10:49:13;12.70;99.90
2723;DHT22;1369;53.216;10.396;2023-04-16T10:51:39;12.80;99.90
2723;DHT22;1369;53.216;10.396;2023-04-16T10:54:18;13.20;99.90
2723;DHT22;1369;53.216;10.396;2023-04-16T10:56:45;13.30;99.90
2723;DHT22;1369;53.216;10.396;2023-04-16T10:59:11;13.50;99.90
2723;DHT22;1369;53.216;10.396;2023-04-16T11:01:40;13.90;99.90
2723;DHT22;1369;53.216;10.396;2023-04-16T11:04:26;14.30;99.90
2723;DHT22;1369;53.216;10.396;2023-04-16T11:10:02;14.70;99.90
2723;DHT22;1369;53.216;10.396;2023-04-16T11:15:00;14.10;99.90
2723;DHT22;1369;53.216;10.396;2023-04-16T11:17:45;13.90;99.90
2723;DHT22;1369;53.216;10.396;2023-04-16T11:20:20;14.10;99.90
2723;DHT22;1369;53.216;10.396;2023-04-16T11:22:46;14.10;99.90
2723;DHT22;1369;53.216;10.396;2023-04-16T11:25:18;13.90;99.90
2723;DHT22;1369;53.216;10.396;2023-04-16T11:27:45;13.70;99.90
2723;DHT22;1369;53.216;10.396;2023-04-16T11:30:10;13.80;99.90
2723;DHT22;1369;53.216;10.396;2023-04-16T11:32:37;13.80;99.90
2723;DHT22;1369;53.216;10.396;2023-04-16T11:35:23;13.50;99.90
2723;DHT22;1369;53.216;10.396;2023-04-16T11:37:49;13.90;99.90
2723;DHT22;1369;53.216;10.396;2023-04-16T11:40:19;14.40;99.90
2723;DHT22;1369;53.216;10.396;2023-04-16T11:42:45;14.20;99.90
2723;DHT22;1369;53.216;10.396;2023-04-16T11:45:11;14.00;99.90
2723;DHT22;1369;53.216;10.396;2023-04-16T11:47:51;14.20;99.90
2723;DHT22;1369;53.216;10.396;2023-04-16T11:50:18;14.50;99.90
2723;DHT22;1369;53.216;10.396;2023-04-16T11:52:44;14.70;99.90
2723;DHT22;1369;53.216;10.396;2023-04-16T11:55:11;14.90;99.90
2723;DHT22;1369;53.216;10.396;2023-04-16T11:57:36;15.20;99.90
2723;DHT22;1369;53.216;10.396;2023-04-16T12:00:03;15.00;99.90
2723;DHT22;1369;53.216;10.396;2023-04-16T12:02:43;15.20;99.90
2723;DHT22;1369;53.216;10.396;2023-04-16T12:05:30;15.00;99.90
2723;DHT22;1369;53.216;10.396;2023-04-16T12:07:57;14.80;99.90
2723;DHT22;1369;53.216;10.396;2023-04-16T12:10:23;15.00;99.90
2723;DHT22;1369;53.216;10.396;2023-04-16T12:12:49;15.10;99.90
2723;DHT22;1369;53.216;10.396;2023-04-16T12:15:14;15.20;99.90
2723;DHT22;1369;53.216;10.396;2023-04-16T12:17:40;15.00;99.90
2723;DHT22;1369;53.216;10.396;2023-04-16T12:20:13;15.10;99.90
2723;DHT22;1369;53.216;10.396;2023-04-16T12:22:46;14.80;99.90
2723;DHT22;1369;53.216;10.396;2023-04-16T12:25:14;14.90;99.90
2723;DHT22;1369;53.216;10.396;2023-04-16T12:27:48;15.00;99.90
2723;DHT22;1369;53.216;10.396;2023-04-16T12:30:18;15.20;99.90
2723;DHT22;1369;53.216;10.396;2023-04-16T12:32:46;15.10;99.90
2723;DHT22;1369;53.216;10.396;2023-04-16T12:35:12;14.70;99.90
2723;DHT22;1369;53.216;10.396;2023-04-16T12:37:38;14.60;99.90
2723;DHT22;1369;53.216;10.396;2023-04-16T12:40:05;14.50;99.90
2723;DHT22;1369;53.216;10.396;2023-04-16T12:42:31;14.20;99.90
2723;DHT22;1369;53.216;10.396;2023-04-16T12:45:04;14.10;99.90
2723;DHT22;1369;53.216;10.396;2023-04-16T12:47:30;14.10;99.90
2723;DHT22;1369;53.216;10.396;2023-04-16T12:49:56;14.00;99.90
2723;DHT22;1369;53.216;10.396;2023-04-16T12:52:23;13.90;99.90
2723;DHT22;1369;53.216;10.396;2023-04-16T12:54:49;13.70;99.90
2723;DHT22;1369;53.216;10.396;2023-04-16T12:57:15;13.50;99.90
2723;DHT22;1369;53.216;10.396;2023-04-16T12:59:41;13.30;99.90
2723;DHT22;1369;53.216;10.396;2023-04-16T13:02:06;13.20;99.90
2723;DHT22;1369;53.216;10.396;2023-04-16T13:04:32;13.10;99.90
2723;DHT22;1369;53.216;10.396;2023-04-16T13:06:57;13.30;99.90
2723;DHT22;1369;53.216;10.396;2023-04-16T13:09:23;13.40;99.90
2723;DHT22;1369;53.216;10.396;2023-04-16T13:11:49;13.50;99.90
2723;DHT22;1369;53.216;10.396;2023-04-16T13:14:14;13.50;99.90
2723;DHT22;1369;53.216;10.396;2023-04-16T13:16:40;13.60;99.90
2723;DHT22;1369;53.216;10.396;2023-04-16T13:19:05;13.60;99.90
2723;DHT22;1369;53.216;10.396;2023-04-16T13:21:32;13.40;99.90
2723;DHT22;1369;53.216;10.396;2023-04-16T13:23:58;13.50;99.90
2723;DHT22;1369;53.216;10.396;2023-04-16T13:26:24;13.40;99.90
2723;DHT22;1369;53.216;10.396;2023-04-16T13:28:49;13.50;99.90
2723;DHT22;1369;53.216;10.396;2023-04-16T13:31:15;13.30;99.90
2723;DHT22;1369;53.216;10.396;2023-04-16T13:33:44;13.20;99.90
2723;DHT22;1369;53.216;10.396;2023-04-16T13:36:09;13.30;99.90
2723;DHT22;1369;53.216;10.396;2023-04-16T13:38:35;13.50;99.90
2723;DHT22;1369;53.216;10.396;2023-04-16T13:41:00;13.70;99.90
2723;DHT22;1369;53.216;10.396;2023-04-16T13:43:26;13.90;99.90
2723;DHT22;1369;53.216;10.396;2023-04-16T13:45:52;13.90;99.90
2723;DHT22;1369;53.216;10.396;2023-04-16T13:48:18;13.80;99.90
2723;DHT22;1369;53.216;10.396;2023-04-16T13:50:44;13.80;99.90
2723;DHT22;1369;53.216;10.396;2023-04-16T13:53:09;13.70;99.90
2723;DHT22;1369;53.216;10.396;2023-04-16T13:55:35;13.70;99.90
2723;DHT22;1369;53.216;10.396;2023-04-16T13:58:01;13.80;99.90
2723;DHT22;1369;53.216;10.396;2023-04-16T14:00:26;13.90;99.90
2723;DHT22;1369;53.216;10.396;2023-04-16T14:02:52;13.90;99.90
2723;DHT22;1369;53.216;10.396;2023-04-16T14:05:18;13.90;99.90
2723;DHT22;1369;53.216;10.396;2023-04-16T14:07:44;13.90;99.90
2723;DHT22;1369;53.216;10.396;2023-04-16T14:10:10;13.80;99.90
2723;DHT22;1369;53.216;10.396;2023-04-16T14:12:36;14.10;99.90
2723;DHT22;1369;53.216;10.396;2023-04-16T14:15:03;14.30;99.90
2723;DHT22;1369;53.216;10.396;2023-04-16T14:17:29;14.40;99.90
2723;DHT22;1369;53.216;10.396;2023-04-16T14:19:54;14.30;99.90
2723;DHT22;1369;53.216;10.396;2023-04-16T14:22:20;14.40;99.90
2723;DHT22;1369;53.216;10.396;2023-04-16T14:24:45;14.30;99.90
2723;DHT22;1369;53.216;10.396;2023-04-16T14:27:11;14.30;99.90
2723;DHT22;1369;53.216;10.396;2023-04-16T14:29:36;14.10;99.90
2723;DHT22;1369;53.216;10.396;2023-04-16T14:32:02;14.10;99.90
2723;DHT22;1369;53.216;10.396;2023-04-16T14:34:28;13.70;99.90
2723;DHT22;1369;53.216;10.396;2023-04-16T14:36:53;13.90;99.90
2723;DHT22;1369;53.216;10.396;2023-04-16T14:39:19;13.70;99.90
2723;DHT22;1369;53.216;10.396;2023-04-16T14:41:45;13.40;99.90
2723;DHT22;1369;53.216;10.396;2023-04-16T14:44:10;13.30;99.90
2723;DHT22;1369;53.216;10.396;2023-04-16T14:46:36;13.20;99.90
2723;DHT22;1369;53.216;10.396;2023-04-16T14:49:03;13.30;99.90
2723;DHT22;1369;53.216;10.396;2023-04-16T14:51:28;13.50;99.90
2723;DHT22;1369;53.216;10.396;2023-04-16T14:53:55;13.50;99.90
2723;DHT22;1369;53.216;10.396;2023-04-16T14:56:21;13.60;99.90
2723;DHT22;1369;53.216;10.396;2023-04-16T14:58:46;13.60;99.90
2723;DHT22;1369;53.216;10.396;2023-04-16T15:01:12;13.50;99.90
2723;DHT22;1369;53.216;10.396;2023-04-16T15:03:39;13.30;99.90
2723;DHT22;1369;53.216;10.396;2023-04-16T15:06:05;13.30;99.90
2723;DHT22;1369;53.216;10.396;2023-04-16T15:08:30;13.20;99.90
2723;DHT22;1369;53.216;10.396;2023-04-16T15:10:56;13.30;99.90
2723;DHT22;1369;53.216;10.396;2023-04-16T15:13:21;13.30;99.90
2723;DHT22;1369;53.216;10.396;2023-04-16T15:15:46;13.40;99.90
2723;DHT22;1369;53.216;10.396;2023-04-16T15:18:12;13.30;99.90
2723;DHT22;1369;53.216;10.396;2023-04-16T15:20:38;13.30;99.90
2723;DHT22;1369;53.216;10.396;2023-04-16T15:23:03;13.50;99.90
2723;DHT22;1369;53.216;10.396;2023-04-16T15:25:29;13.50;99.90
2723;DHT22;1369;53.216;10.396;2023-04-16T15:27:54;13.50;99.90
2723;DHT22;1369;53.216;10.396;2023-04-16T15:30:20;13.50;99.90
2723;DHT22;1369;53.216;10.396;2023-04-16T15:32:45;13.40;99.90
2723;DHT22;1369;53.216;10.396;2023-04-16T15:35:12;13.30;99.90
2723;DHT22;1369;53.216;10.396;2023-04-16T15:37:37;13.00;99.90
2723;DHT22;1369;53.216;10.396;2023-04-16T15:40:04;13.10;99.90
2723;DHT22;1369;53.216;10.396;2023-04-16T15:42:30;12.80;99.90
2723;DHT22;1369;53.216;10.396;2023-04-16T15:44:56;12.80;99.90
2723;DHT22;1369;53.216;10.396;2023-04-16T15:47:21;12.90;99.90
2723;DHT22;1369;53.216;10.396;2023-04-16T15:49:48;12.80;99.90
2723;DHT22;1369;53.216;10.396;2023-04-16T15:52:14;12.90;99.90
2723;DHT22;1369;53.216;10.396;2023-04-16T15:54:40;12.50;99.90